createdAt,value
2022-12-24T00:00:10.137Z,41.4300
2022-12-24T00:00:21.310Z,41.4250
2022-12-24T00:00:32.447Z,41.4250
2022-12-24T00:00:43.721Z,41.4190
2022-12-24T00:00:55.075Z,41.4300
2022-12-24T00:01:06.158Z,41.4360
2022-12-24T00:01:17.248Z,41.4300
2022-12-24T00:01:28.303Z,41.4130
2022-12-24T00:01:39.353Z,41.4250
2022-12-24T00:01:50.425Z,41.4300
2022-12-24T00:02:01.591Z,41.4360
2022-12-24T00:02:12.831Z,41.4420
2022-12-24T00:02:24.115Z,41.4480
2022-12-24T00:02:35.607Z,41.4690
2022-12-24T00:02:47.101Z,41.4750
2022-12-24T00:02:58.333Z,41.4730
2022-12-24T00:03:09.749Z,41.4540
2022-12-24T00:03:21.354Z,41.4610
2022-12-24T00:03:32.778Z,41.4420
2022-12-24T00:03:43.958Z,41.4670
2022-12-24T00:03:55.021Z,41.4730
2022-12-24T00:04:06.098Z,41.4790
2022-12-24T00:04:17.256Z,41.4540
2022-12-24T00:04:28.287Z,41.4540
2022-12-24T00:04:39.350Z,41.4300
2022-12-24T00:04:53.034Z,41.4220
2022-12-24T00:05:07.399Z,41.5820
2022-12-24T00:05:18.491Z,41.5140
2022-12-24T00:05:29.533Z,41.4510
2022-12-24T00:05:40.608Z,41.4360
2022-12-24T00:05:51.684Z,41.4220
2022-12-24T00:06:02.727Z,41.3970
2022-12-24T00:06:13.795Z,41.3910
2022-12-24T00:06:24.918Z,41.3850
2022-12-24T00:06:36.008Z,41.3970
2022-12-24T00:06:47.087Z,41.3850
2022-12-24T00:06:58.157Z,41.3740
2022-12-24T00:07:09.298Z,41.3740
2022-12-24T00:07:20.405Z,41.3850
2022-12-24T00:07:31.440Z,41.4030
2022-12-24T00:07:42.511Z,41.3850
2022-12-24T00:07:53.600Z,41.3970
2022-12-24T00:08:04.648Z,41.3740
2022-12-24T00:08:15.720Z,41.3910
2022-12-24T00:08:26.795Z,41.3850
2022-12-24T00:08:37.860Z,41.3850
2022-12-24T00:08:48.920Z,41.3740
2022-12-24T00:08:59.993Z,41.3680
2022-12-24T00:09:11.065Z,41.3850
2022-12-24T00:09:22.143Z,41.3740
2022-12-24T00:09:33.176Z,41.3800
2022-12-24T00:09:44.238Z,41.3680
2022-12-24T00:09:55.307Z,41.3680
2022-12-24T00:10:06.399Z,41.3620
2022-12-24T00:10:17.525Z,41.3850
2022-12-24T00:10:28.696Z,41.3800
2022-12-24T00:10:39.801Z,41.3910
2022-12-24T00:10:50.928Z,41.4150
2022-12-24T00:11:01.983Z,41.4090
2022-12-24T00:11:13.054Z,41.4280
2022-12-24T00:11:24.144Z,41.4400
2022-12-24T00:11:35.212Z,41.4510
2022-12-24T00:11:46.259Z,41.4590
2022-12-24T00:11:57.328Z,41.4530
2022-12-24T00:12:08.386Z,41.4750
2022-12-24T00:12:19.446Z,41.4570
2022-12-24T00:12:30.517Z,41.4690
2022-12-24T00:12:41.594Z,41.4450
2022-12-24T00:12:52.641Z,41.4220
2022-12-24T00:13:03.727Z,41.4300
2022-12-24T00:13:14.797Z,41.4180
2022-12-24T00:13:25.861Z,41.4070
2022-12-24T00:13:36.920Z,41.3970
2022-12-24T00:13:47.998Z,41.3970
2022-12-24T00:13:59.075Z,41.3910
2022-12-24T00:14:10.159Z,41.4030
2022-12-24T00:14:21.210Z,41.4090
2022-12-24T00:14:32.294Z,41.4090
2022-12-24T00:14:43.348Z,41.4280
2022-12-24T00:14:54.388Z,41.4130
2022-12-24T00:15:05.469Z,41.4180
2022-12-24T00:15:16.550Z,41.4180
2022-12-24T00:15:27.606Z,41.4010
2022-12-24T00:15:38.711Z,41.4180
2022-12-24T00:15:49.772Z,41.4300
2022-12-24T00:16:00.857Z,41.4240
2022-12-24T00:16:11.913Z,41.4240
2022-12-24T00:16:23.066Z,41.4070
2022-12-24T00:16:34.196Z,41.4150
2022-12-24T00:16:45.310Z,41.3950
2022-12-24T00:16:56.360Z,41.3890
2022-12-24T00:17:07.454Z,41.3950
2022-12-24T00:17:18.551Z,41.3840
2022-12-24T00:17:29.627Z,41.3840
2022-12-24T00:17:40.701Z,41.3840
2022-12-24T00:17:51.776Z,41.3640
2022-12-24T00:18:02.849Z,41.3590
2022-12-24T00:18:13.908Z,41.3560
2022-12-24T00:18:24.999Z,41.3620
2022-12-24T00:18:41.567Z,41.3260
2022-12-24T00:18:53.030Z,41.5290
2022-12-24T00:19:04.090Z,41.4420
2022-12-24T00:19:15.172Z,41.3590
2022-12-24T00:19:26.262Z,41.3260
2022-12-24T00:19:37.347Z,41.3260
2022-12-24T00:19:48.410Z,41.3140
2022-12-24T00:19:59.484Z,41.3020
2022-12-24T00:20:10.539Z,41.3020
2022-12-24T00:20:21.612Z,41.2960
2022-12-24T00:20:32.695Z,41.2960
2022-12-24T00:20:43.788Z,41.2790
2022-12-24T00:20:54.861Z,41.2730
2022-12-24T00:21:05.931Z,41.2730
2022-12-24T00:21:17.028Z,41.2610
2022-12-24T00:21:28.080Z,41.2560
2022-12-24T00:21:39.125Z,41.2310
2022-12-24T00:21:50.185Z,41.2310
2022-12-24T00:22:01.263Z,41.2250
2022-12-24T00:22:12.332Z,41.2130
2022-12-24T00:22:23.356Z,41.2080
2022-12-24T00:22:34.424Z,41.2020
2022-12-24T00:22:45.512Z,41.1960
2022-12-24T00:22:56.558Z,41.1800
2022-12-24T00:23:07.636Z,41.1840
2022-12-24T00:23:18.699Z,41.1840
2022-12-24T00:23:29.760Z,41.1610
2022-12-24T00:23:40.862Z,41.1730
2022-12-24T00:23:51.914Z,41.1900
2022-12-24T00:24:02.990Z,41.1900
2022-12-24T00:24:14.079Z,41.1840
2022-12-24T00:24:25.118Z,41.1840
2022-12-24T00:24:36.187Z,41.1730
2022-12-24T00:24:47.241Z,41.1610
2022-12-24T00:24:58.322Z,41.1730
2022-12-24T00:25:09.377Z,41.1670
2022-12-24T00:25:20.447Z,41.1550
2022-12-24T00:25:31.509Z,41.1610
2022-12-24T00:25:42.585Z,41.1670
2022-12-24T00:25:53.673Z,41.1780
2022-12-24T00:26:04.742Z,41.1730
2022-12-24T00:26:15.813Z,41.1870
2022-12-24T00:26:26.909Z,41.1810
2022-12-24T00:26:37.964Z,41.1690
2022-12-24T00:26:49.038Z,41.1810
2022-12-24T00:27:00.110Z,41.1810
2022-12-24T00:27:11.158Z,41.1750
2022-12-24T00:27:22.231Z,41.1630
2022-12-24T00:27:33.312Z,41.1550
2022-12-24T00:27:44.384Z,41.1610
2022-12-24T00:27:55.443Z,41.1480
2022-12-24T00:28:06.514Z,41.1240
2022-12-24T00:28:17.561Z,41.1360
2022-12-24T00:28:28.641Z,41.1190
2022-12-24T00:28:39.679Z,41.1130
2022-12-24T00:28:50.751Z,41.1070
2022-12-24T00:29:01.827Z,41.1130
2022-12-24T00:29:12.877Z,41.1190
2022-12-24T00:29:23.925Z,41.1130
2022-12-24T00:29:34.957Z,41.1300
2022-12-24T00:29:46.038Z,41.1130
2022-12-24T00:29:57.094Z,41.1190
2022-12-24T00:30:08.169Z,41.1070
2022-12-24T00:30:19.269Z,41.1010
2022-12-24T00:30:30.364Z,41.1010
2022-12-24T00:30:41.422Z,41.0950
2022-12-24T00:30:52.557Z,41.0840
2022-12-24T00:31:03.725Z,41.0840
2022-12-24T00:31:14.996Z,41.1190
2022-12-24T00:31:26.437Z,41.1300
2022-12-24T00:31:37.531Z,41.1190
2022-12-24T00:31:48.597Z,41.1240
2022-12-24T00:31:59.658Z,41.1010
2022-12-24T00:32:10.728Z,41.0950
2022-12-24T00:32:21.803Z,41.0950
2022-12-24T00:32:32.873Z,41.1010
2022-12-24T00:32:43.919Z,41.1240
2022-12-24T00:32:54.977Z,41.1130
2022-12-24T00:33:06.034Z,41.1010
2022-12-24T00:33:22.373Z,41.1070
2022-12-24T00:33:34.089Z,41.3140
2022-12-24T00:33:45.161Z,41.2500
2022-12-24T00:33:56.260Z,41.1960
2022-12-24T00:34:07.312Z,41.1730
2022-12-24T00:34:18.389Z,41.1480
2022-12-24T00:34:29.456Z,41.1480
2022-12-24T00:34:40.527Z,41.1300
2022-12-24T00:34:51.592Z,41.1240
2022-12-24T00:35:02.681Z,41.1360
2022-12-24T00:35:13.722Z,41.1240
2022-12-24T00:35:24.806Z,41.1480
2022-12-24T00:35:35.868Z,41.1300
2022-12-24T00:35:46.932Z,41.1240
2022-12-24T00:35:57.998Z,41.1190
2022-12-24T00:36:09.099Z,41.1360
2022-12-24T00:36:20.161Z,41.1480
2022-12-24T00:36:31.196Z,41.1550
2022-12-24T00:36:42.267Z,41.1610
2022-12-24T00:36:53.333Z,41.1570
2022-12-24T00:37:04.409Z,41.1690
2022-12-24T00:37:15.477Z,41.1750
2022-12-24T00:37:26.566Z,41.1780
2022-12-24T00:37:37.628Z,41.1730
2022-12-24T00:37:48.701Z,41.1670
2022-12-24T00:37:59.767Z,41.1730
2022-12-24T00:38:10.819Z,41.1730
2022-12-24T00:38:21.897Z,41.1780
2022-12-24T00:38:32.991Z,41.1730
2022-12-24T00:38:44.011Z,41.1610
2022-12-24T00:38:55.108Z,41.1550
2022-12-24T00:39:06.159Z,41.1420
2022-12-24T00:39:17.216Z,41.1240
2022-12-24T00:39:28.287Z,41.1480
2022-12-24T00:39:39.362Z,41.1550
2022-12-24T00:39:50.441Z,41.1550
2022-12-24T00:40:01.512Z,41.1480
2022-12-24T00:40:12.587Z,41.1480
2022-12-24T00:40:23.656Z,41.1480
2022-12-24T00:40:34.726Z,41.1480
2022-12-24T00:40:45.787Z,41.1550
2022-12-24T00:40:56.852Z,41.1610
2022-12-24T00:41:07.919Z,41.1550
2022-12-24T00:41:18.992Z,41.1550
2022-12-24T00:41:30.075Z,41.1420
2022-12-24T00:41:41.127Z,41.1360
2022-12-24T00:41:52.183Z,41.1610
2022-12-24T00:42:03.242Z,41.1480
2022-12-24T00:42:14.307Z,41.1420
2022-12-24T00:42:25.391Z,41.1480
2022-12-24T00:42:36.440Z,41.1480
2022-12-24T00:42:47.508Z,41.1550
2022-12-24T00:42:58.577Z,41.1550
2022-12-24T00:43:09.647Z,41.1730
2022-12-24T00:43:20.728Z,41.1550
2022-12-24T00:43:31.821Z,41.1480
2022-12-24T00:43:42.868Z,41.1480
2022-12-24T00:43:53.933Z,41.1420
2022-12-24T00:44:05.028Z,41.1360
2022-12-24T00:44:16.119Z,41.1400
2022-12-24T00:44:27.227Z,41.1220
2022-12-24T00:44:38.287Z,41.1280
2022-12-24T00:44:49.347Z,41.1030
2022-12-24T00:45:00.407Z,41.1220
2022-12-24T00:45:11.467Z,41.1240
2022-12-24T00:45:22.732Z,41.1300
2022-12-24T00:45:33.755Z,41.1240
2022-12-24T00:45:44.858Z,41.1190
2022-12-24T00:45:55.910Z,41.1360
2022-12-24T00:46:07.008Z,41.1480
2022-12-24T00:46:18.153Z,41.1610
2022-12-24T00:46:29.326Z,41.1550
2022-12-24T00:46:40.538Z,41.1780
2022-12-24T00:46:51.649Z,41.1610
2022-12-24T00:47:06.867Z,41.1670
2022-12-24T00:47:19.697Z,41.3720
2022-12-24T00:47:30.764Z,41.3180
2022-12-24T00:47:41.844Z,41.2560
2022-12-24T00:47:52.899Z,41.2310
2022-12-24T00:48:03.974Z,41.2060
2022-12-24T00:48:15.044Z,41.1940
2022-12-24T00:48:26.120Z,41.1810
2022-12-24T00:48:37.189Z,41.1900
2022-12-24T00:48:48.253Z,41.1780
2022-12-24T00:48:59.343Z,41.1780
2022-12-24T00:49:10.403Z,41.1730
2022-12-24T00:49:21.487Z,41.1610
2022-12-24T00:49:32.548Z,41.1420
2022-12-24T00:49:43.605Z,41.1130
2022-12-24T00:49:54.684Z,41.1240
2022-12-24T00:50:05.747Z,41.1360
2022-12-24T00:50:16.821Z,41.1420
2022-12-24T00:50:27.877Z,41.1420
2022-12-24T00:50:39.028Z,41.1420
2022-12-24T00:50:50.190Z,41.1360
2022-12-24T00:51:01.335Z,41.1420
2022-12-24T00:51:12.430Z,41.1190
2022-12-24T00:51:23.537Z,41.1480
2022-12-24T00:51:34.664Z,41.1420
2022-12-24T00:51:45.728Z,41.1550
2022-12-24T00:51:56.792Z,41.1550
2022-12-24T00:52:07.858Z,41.1420
2022-12-24T00:52:18.936Z,41.1480
2022-12-24T00:52:29.997Z,41.1360
2022-12-24T00:52:41.043Z,41.1360
2022-12-24T00:52:52.100Z,41.1130
2022-12-24T00:53:04.277Z,41.1670
2022-12-24T00:53:15.319Z,41.1420
2022-12-24T00:53:26.397Z,41.1130
2022-12-24T00:53:37.448Z,41.1130
2022-12-24T00:53:48.509Z,41.0950
2022-12-24T00:53:59.610Z,41.0890
2022-12-24T00:54:10.706Z,41.0950
2022-12-24T00:54:21.772Z,41.1010
2022-12-24T00:54:32.850Z,41.0890
2022-12-24T00:54:43.907Z,41.0780
2022-12-24T00:54:54.958Z,41.0890
2022-12-24T00:55:06.027Z,41.1010
2022-12-24T00:55:17.111Z,41.0890
2022-12-24T00:55:28.203Z,41.0950
2022-12-24T00:55:39.270Z,41.0890
2022-12-24T00:55:50.325Z,41.1010
2022-12-24T00:56:01.408Z,41.0950
2022-12-24T00:56:12.491Z,41.1130
2022-12-24T00:56:23.559Z,41.1010
2022-12-24T00:56:34.655Z,41.0950
2022-12-24T00:56:45.741Z,41.0950
2022-12-24T00:56:56.798Z,41.1070
2022-12-24T00:57:07.859Z,41.1070
2022-12-24T00:57:18.931Z,41.1190
2022-12-24T00:57:30.011Z,41.0950
2022-12-24T00:57:41.081Z,41.1190
2022-12-24T00:57:52.145Z,41.0920
2022-12-24T00:58:03.170Z,41.0860
2022-12-24T00:58:14.228Z,41.0780
2022-12-24T00:58:25.296Z,41.0720
2022-12-24T00:58:36.356Z,41.1010
2022-12-24T00:58:47.420Z,41.0950
2022-12-24T00:58:58.512Z,41.0890
2022-12-24T00:59:09.555Z,41.0780
2022-12-24T00:59:20.604Z,41.0720
2022-12-24T00:59:31.671Z,41.0660
2022-12-24T00:59:42.759Z,41.0720
2022-12-24T00:59:53.837Z,41.0780
2022-12-24T01:00:04.918Z,41.0720
2022-12-24T01:00:16.044Z,41.0780
2022-12-24T01:00:27.091Z,41.0720
2022-12-24T01:00:38.151Z,41.0530
2022-12-24T01:00:49.207Z,41.0350
2022-12-24T01:01:00.376Z,41.0300
2022-12-24T01:01:11.611Z,41.0240
2022-12-24T01:01:23.001Z,41.0410
2022-12-24T01:01:34.504Z,41.0530
2022-12-24T01:01:45.858Z,41.0590
2022-12-24T01:01:57.204Z,41.0240
2022-12-24T01:02:08.795Z,41.0470
2022-12-24T01:02:20.370Z,41.0410
2022-12-24T01:02:31.907Z,41.0660
2022-12-24T01:02:43.367Z,41.0660
2022-12-24T01:02:54.749Z,41.0740
2022-12-24T01:03:06.100Z,41.0680
2022-12-24T01:03:17.283Z,41.0680
2022-12-24T01:03:28.400Z,41.0510
2022-12-24T01:03:39.532Z,41.0470
2022-12-24T01:03:50.708Z,41.0470
2022-12-24T01:04:01.773Z,41.0300
2022-12-24T01:04:12.831Z,41.0240
2022-12-24T01:04:23.925Z,41.0300
2022-12-24T01:04:35.002Z,41.0180
2022-12-24T01:04:46.055Z,41.0120
2022-12-24T01:04:57.116Z,41.0000
2022-12-24T01:05:08.177Z,41.0120
2022-12-24T01:05:19.228Z,41.0060
2022-12-24T01:05:30.327Z,40.9950
2022-12-24T01:05:41.356Z,40.9830
2022-12-24T01:05:52.431Z,40.9950
2022-12-24T01:06:03.587Z,40.9950
2022-12-24T01:06:14.651Z,40.9950
2022-12-24T01:06:25.722Z,40.9890
2022-12-24T01:06:36.782Z,41.0000
2022-12-24T01:06:47.836Z,41.0000
2022-12-24T01:06:58.953Z,41.0000
2022-12-24T01:07:10.026Z,40.9950
2022-12-24T01:07:21.077Z,40.9890
2022-12-24T01:07:32.116Z,41.0000
2022-12-24T01:07:43.181Z,40.9950
2022-12-24T01:07:54.258Z,41.0060
2022-12-24T01:08:05.386Z,41.0060
2022-12-24T01:08:16.438Z,41.0000
2022-12-24T01:08:27.511Z,40.9890
2022-12-24T01:08:38.670Z,40.9910
2022-12-24T01:08:49.709Z,41.0030
2022-12-24T01:09:00.793Z,41.0030
2022-12-24T01:09:11.859Z,41.0160
2022-12-24T01:09:22.916Z,41.0220
2022-12-24T01:09:33.975Z,41.0090
2022-12-24T01:09:45.040Z,41.0160
2022-12-24T01:09:56.130Z,41.0090
2022-12-24T01:10:07.171Z,41.0090
2022-12-24T01:10:18.221Z,41.0090
2022-12-24T01:10:29.294Z,41.0090
2022-12-24T01:10:40.375Z,41.0090
2022-12-24T01:10:51.439Z,40.9910
2022-12-24T01:11:02.527Z,40.9680
2022-12-24T01:11:13.603Z,40.9680
2022-12-24T01:11:24.637Z,40.9560
2022-12-24T01:11:35.707Z,40.9580
2022-12-24T01:11:46.828Z,40.9470
2022-12-24T01:11:57.880Z,40.9470
2022-12-24T01:12:08.969Z,40.9470
2022-12-24T01:12:20.061Z,40.9450
2022-12-24T01:12:31.109Z,40.9560
2022-12-24T01:12:42.284Z,40.9500
2022-12-24T01:12:53.327Z,40.9560
2022-12-24T01:13:04.431Z,40.9680
2022-12-24T01:13:15.475Z,40.9620
2022-12-24T01:13:26.548Z,40.9530
2022-12-24T01:13:37.660Z,40.9660
2022-12-24T01:13:48.721Z,40.9720
2022-12-24T01:13:59.804Z,40.9800
2022-12-24T01:14:10.884Z,40.9830
2022-12-24T01:14:21.959Z,40.9890
2022-12-24T01:14:33.062Z,40.9580
2022-12-24T01:14:44.136Z,40.9580
2022-12-24T01:14:55.208Z,40.9530
2022-12-24T01:15:06.270Z,40.9390
2022-12-24T01:15:17.331Z,40.9520
2022-12-24T01:15:28.412Z,40.9410
2022-12-24T01:15:39.509Z,40.9230
2022-12-24T01:15:50.612Z,40.9350
2022-12-24T01:16:01.749Z,40.9170
2022-12-24T01:16:12.873Z,40.9120
2022-12-24T01:16:23.979Z,40.9060
2022-12-24T01:16:35.096Z,40.9000
2022-12-24T01:16:46.202Z,40.8880
2022-12-24T01:16:57.268Z,40.8830
2022-12-24T01:17:08.351Z,40.8690
2022-12-24T01:17:19.491Z,40.8750
2022-12-24T01:17:30.568Z,40.8580
2022-12-24T01:17:41.639Z,40.8580
2022-12-24T01:17:52.687Z,40.8690
2022-12-24T01:18:03.789Z,40.8880
2022-12-24T01:18:14.847Z,40.8880
2022-12-24T01:18:25.952Z,40.8880
2022-12-24T01:18:36.996Z,40.9020
2022-12-24T01:18:48.059Z,40.9080
2022-12-24T01:18:59.128Z,40.9200
2022-12-24T01:19:10.189Z,40.9330
2022-12-24T01:19:21.247Z,40.9270
2022-12-24T01:19:32.317Z,40.9450
2022-12-24T01:19:43.405Z,40.9230
2022-12-24T01:19:54.480Z,40.9120
2022-12-24T01:20:05.552Z,40.9000
2022-12-24T01:20:16.642Z,40.9000
2022-12-24T01:20:27.707Z,40.9000
2022-12-24T01:20:38.782Z,40.8880
2022-12-24T01:20:49.845Z,40.8750
2022-12-24T01:21:00.946Z,40.8690
2022-12-24T01:21:12.095Z,40.8750
2022-12-24T01:21:23.130Z,40.8640
2022-12-24T01:21:34.200Z,40.8640
2022-12-24T01:21:45.256Z,40.8520
2022-12-24T01:21:56.306Z,40.8520
2022-12-24T01:22:07.382Z,40.8400
2022-12-24T01:22:18.469Z,40.8290
2022-12-24T01:22:29.569Z,40.8230
2022-12-24T01:22:40.658Z,40.8290
2022-12-24T01:22:51.708Z,40.8290
2022-12-24T01:23:02.769Z,40.8520
2022-12-24T01:23:13.846Z,40.8290
2022-12-24T01:23:24.907Z,40.8520
2022-12-24T01:23:35.975Z,40.8400
2022-12-24T01:23:47.046Z,40.8380
2022-12-24T01:23:58.109Z,40.8500
2022-12-24T01:24:09.172Z,40.8310
2022-12-24T01:24:20.234Z,40.8250
2022-12-24T01:24:31.295Z,40.8190
2022-12-24T01:24:42.384Z,40.8340
2022-12-24T01:24:53.442Z,40.8340
2022-12-24T01:25:04.507Z,40.8400
2022-12-24T01:25:15.600Z,40.8290
2022-12-24T01:25:26.659Z,40.8290
2022-12-24T01:25:37.727Z,40.8310
2022-12-24T01:25:48.800Z,40.8380
2022-12-24T01:25:59.872Z,40.8460
2022-12-24T01:26:10.947Z,40.8290
2022-12-24T01:26:22.011Z,40.8230
2022-12-24T01:26:33.068Z,40.8290
2022-12-24T01:26:44.135Z,40.8290
2022-12-24T01:26:55.216Z,40.8170
2022-12-24T01:27:06.249Z,40.8110
2022-12-24T01:27:17.307Z,40.8170
2022-12-24T01:27:28.385Z,40.8000
2022-12-24T01:27:39.494Z,40.8170
2022-12-24T01:27:50.565Z,40.8110
2022-12-24T01:28:01.633Z,40.7940
2022-12-24T01:28:12.685Z,40.8000
2022-12-24T01:28:23.751Z,40.8000
2022-12-24T01:28:34.829Z,40.8060
2022-12-24T01:28:45.899Z,40.8170
2022-12-24T01:28:56.964Z,40.7940
2022-12-24T01:29:08.041Z,40.8000
2022-12-24T01:29:19.132Z,40.8000
2022-12-24T01:29:30.207Z,40.8060
2022-12-24T01:29:41.267Z,40.7810
2022-12-24T01:29:52.333Z,40.7580
2022-12-24T01:30:03.401Z,40.7170
2022-12-24T01:30:14.471Z,40.7050
2022-12-24T01:30:25.538Z,40.7050
2022-12-24T01:30:36.597Z,40.7190
2022-12-24T01:30:47.707Z,40.7070
2022-12-24T01:30:58.842Z,40.7130
2022-12-24T01:31:10.017Z,40.7130
2022-12-24T01:31:21.127Z,40.7010
2022-12-24T01:31:32.332Z,40.6960
2022-12-24T01:31:43.545Z,40.7010
2022-12-24T01:31:54.734Z,40.6960
2022-12-24T01:32:05.807Z,40.6900
2022-12-24T01:32:16.889Z,40.6840
2022-12-24T01:32:27.970Z,40.6900
2022-12-24T01:32:39.040Z,40.6840
2022-12-24T01:32:50.136Z,40.6900
2022-12-24T01:33:01.207Z,40.6900
2022-12-24T01:33:12.280Z,40.6840
2022-12-24T01:33:23.309Z,40.6720
2022-12-24T01:33:34.369Z,40.6530
2022-12-24T01:33:45.431Z,40.6530
2022-12-24T01:33:56.655Z,40.6660
2022-12-24T01:34:07.743Z,40.6530
2022-12-24T01:34:18.815Z,40.6590
2022-12-24T01:34:29.904Z,40.6780
2022-12-24T01:34:40.981Z,40.6720
2022-12-24T01:34:52.082Z,40.6630
2022-12-24T01:35:03.177Z,40.6630
2022-12-24T01:35:14.242Z,40.6590
2022-12-24T01:35:25.327Z,40.6450
2022-12-24T01:35:36.421Z,40.6570
2022-12-24T01:35:47.533Z,40.6630
2022-12-24T01:35:58.581Z,40.6800
2022-12-24T01:36:09.685Z,40.6800
2022-12-24T01:36:20.733Z,40.6630
2022-12-24T01:36:31.805Z,40.6630
2022-12-24T01:36:42.888Z,40.6570
2022-12-24T01:36:53.941Z,40.6630
2022-12-24T01:37:05.144Z,40.6860
2022-12-24T01:37:16.211Z,40.6860
2022-12-24T01:37:27.280Z,40.6920
2022-12-24T01:37:38.358Z,40.6750
2022-12-24T01:37:49.432Z,40.6860
2022-12-24T01:38:00.537Z,40.6860
2022-12-24T01:38:11.610Z,40.6980
2022-12-24T01:38:22.663Z,40.6920
2022-12-24T01:38:33.741Z,40.6800
2022-12-24T01:38:44.826Z,40.6920
2022-12-24T01:38:55.917Z,40.6860
2022-12-24T01:39:06.999Z,40.6860
2022-12-24T01:39:18.061Z,40.6750
2022-12-24T01:39:29.165Z,40.6630
2022-12-24T01:39:40.232Z,40.6690
2022-12-24T01:39:51.289Z,40.6630
2022-12-24T01:40:02.375Z,40.6510
2022-12-24T01:40:13.411Z,40.6450
2022-12-24T01:40:24.482Z,40.6340
2022-12-24T01:40:35.593Z,40.6160
2022-12-24T01:40:46.660Z,40.6220
2022-12-24T01:40:57.733Z,40.6160
2022-12-24T01:41:08.823Z,40.5740
2022-12-24T01:41:19.899Z,40.5680
2022-12-24T01:41:30.967Z,40.5570
2022-12-24T01:41:42.027Z,40.5570
2022-12-24T01:41:53.108Z,40.5570
2022-12-24T01:42:04.197Z,40.5590
2022-12-24T01:42:15.231Z,40.5590
2022-12-24T01:42:26.306Z,40.5650
2022-12-24T01:42:37.375Z,40.5470
2022-12-24T01:42:48.445Z,40.5470
2022-12-24T01:42:59.518Z,40.5530
2022-12-24T01:43:10.710Z,40.5410
2022-12-24T01:43:21.787Z,40.5470
2022-12-24T01:43:32.857Z,40.5650
2022-12-24T01:43:43.918Z,40.5300
2022-12-24T01:43:54.985Z,40.5120
2022-12-24T01:44:06.037Z,40.5180
2022-12-24T01:44:17.098Z,40.5240
2022-12-24T01:44:33.414Z,40.5300
2022-12-24T01:44:45.127Z,40.7230
2022-12-24T01:44:56.203Z,40.6630
2022-12-24T01:45:07.273Z,40.5800
2022-12-24T01:45:18.326Z,40.5450
2022-12-24T01:45:29.392Z,40.5280
2022-12-24T01:45:40.470Z,40.5400
2022-12-24T01:45:51.542Z,40.5150
2022-12-24T01:46:02.643Z,40.5340
2022-12-24T01:46:13.727Z,40.5280
2022-12-24T01:46:24.863Z,40.5150
2022-12-24T01:46:35.970Z,40.5340
2022-12-24T01:46:47.113Z,40.5400
2022-12-24T01:46:58.261Z,40.5450
2022-12-24T01:47:09.396Z,40.5570
2022-12-24T01:47:20.442Z,40.5400
2022-12-24T01:47:31.524Z,40.5510
2022-12-24T01:47:42.610Z,40.5340
2022-12-24T01:47:53.682Z,40.5340
2022-12-24T01:48:04.746Z,40.5510
2022-12-24T01:48:15.995Z,40.5450
2022-12-24T01:48:27.068Z,40.5630
2022-12-24T01:48:38.146Z,40.5510
2022-12-24T01:48:49.207Z,40.5570
2022-12-24T01:49:00.328Z,40.5480
2022-12-24T01:49:11.368Z,40.5360
2022-12-24T01:49:22.430Z,40.5450
2022-12-24T01:49:33.498Z,40.5510
2022-12-24T01:49:44.551Z,40.5510
2022-12-24T01:49:55.649Z,40.5590
2022-12-24T01:50:06.716Z,40.5720
2022-12-24T01:50:17.795Z,40.5720
2022-12-24T01:50:28.883Z,40.5420
2022-12-24T01:50:40.002Z,40.5570
2022-12-24T01:50:51.109Z,40.5630
2022-12-24T01:51:02.233Z,40.5570
2022-12-24T01:51:13.316Z,40.5570
2022-12-24T01:51:24.400Z,40.5570
2022-12-24T01:51:35.490Z,40.5450
2022-12-24T01:51:46.588Z,40.5340
2022-12-24T01:51:57.676Z,40.5090
2022-12-24T01:52:08.752Z,40.5090
2022-12-24T01:52:19.817Z,40.4970
2022-12-24T01:52:30.881Z,40.4970
2022-12-24T01:52:41.960Z,40.5030
2022-12-24T01:52:53.019Z,40.4970
2022-12-24T01:53:04.096Z,40.4970
2022-12-24T01:53:15.172Z,40.4910
2022-12-24T01:53:26.257Z,40.4860
2022-12-24T01:53:37.348Z,40.4620
2022-12-24T01:53:48.402Z,40.4390
2022-12-24T01:53:59.470Z,40.4390
2022-12-24T01:54:10.563Z,40.4410
2022-12-24T01:54:21.600Z,40.4410
2022-12-24T01:54:32.694Z,40.4470
2022-12-24T01:54:43.756Z,40.4300
2022-12-24T01:54:54.819Z,40.4300
2022-12-24T01:55:05.884Z,40.4300
2022-12-24T01:55:16.949Z,40.4060
2022-12-24T01:55:28.032Z,40.4120
2022-12-24T01:55:39.131Z,40.4060
2022-12-24T01:55:50.219Z,40.4060
2022-12-24T01:56:01.455Z,40.4010
2022-12-24T01:56:12.638Z,40.4010
2022-12-24T01:56:23.712Z,40.3930
2022-12-24T01:56:34.785Z,40.3870
2022-12-24T01:56:45.874Z,40.3930
2022-12-24T01:56:56.978Z,40.3930
2022-12-24T01:57:08.104Z,40.4060
2022-12-24T01:57:19.282Z,40.4060
2022-12-24T01:57:30.443Z,40.4180
2022-12-24T01:57:41.724Z,40.4180
2022-12-24T01:57:52.802Z,40.4180
2022-12-24T01:58:03.882Z,40.4060
2022-12-24T01:58:14.962Z,40.4090
2022-12-24T01:58:26.044Z,40.4090
2022-12-24T01:58:37.138Z,40.4030
2022-12-24T01:58:48.230Z,40.3910
2022-12-24T01:58:59.282Z,40.3910
2022-12-24T01:59:10.347Z,40.3740
2022-12-24T01:59:21.429Z,40.3800
2022-12-24T01:59:32.498Z,40.3970
2022-12-24T01:59:43.583Z,40.4030
2022-12-24T01:59:54.666Z,40.3910
2022-12-24T02:00:05.717Z,40.3910
2022-12-24T02:00:16.800Z,40.3910
2022-12-24T02:00:27.821Z,40.3850
2022-12-24T02:00:38.916Z,40.3850
2022-12-24T02:00:49.973Z,40.4090
2022-12-24T02:01:01.047Z,40.4260
2022-12-24T02:01:12.277Z,40.4030
2022-12-24T02:01:23.468Z,40.4130
2022-12-24T02:01:34.869Z,40.4360
2022-12-24T02:01:46.303Z,40.4420
2022-12-24T02:01:57.550Z,40.4470
2022-12-24T02:02:08.756Z,40.4530
2022-12-24T02:02:20.100Z,40.4300
2022-12-24T02:02:31.589Z,40.4590
2022-12-24T02:02:43.008Z,40.4840
2022-12-24T02:02:54.180Z,40.4690
2022-12-24T02:03:05.777Z,40.4710
2022-12-24T02:03:17.234Z,40.4780
2022-12-24T02:03:28.438Z,40.4530
2022-12-24T02:03:39.673Z,40.4200
2022-12-24T02:03:50.887Z,40.4200
2022-12-24T02:04:02.030Z,40.4090
2022-12-24T02:04:13.091Z,40.3910
2022-12-24T02:04:24.179Z,40.3970
2022-12-24T02:04:35.251Z,40.3910
2022-12-24T02:04:46.322Z,40.4030
2022-12-24T02:04:57.393Z,40.3970
2022-12-24T02:05:08.475Z,40.4010
2022-12-24T02:05:19.520Z,40.3820
2022-12-24T02:05:30.597Z,40.3950
2022-12-24T02:05:41.677Z,40.3760
2022-12-24T02:05:52.747Z,40.3850
2022-12-24T02:06:03.810Z,40.3800
2022-12-24T02:06:14.925Z,40.3620
2022-12-24T02:06:25.998Z,40.3620
2022-12-24T02:06:37.042Z,40.3320
2022-12-24T02:06:48.121Z,40.3260
2022-12-24T02:06:59.206Z,40.3090
2022-12-24T02:07:10.281Z,40.2850
2022-12-24T02:07:21.384Z,40.2620
2022-12-24T02:07:32.439Z,40.2820
2022-12-24T02:07:43.502Z,40.2700
2022-12-24T02:07:54.577Z,40.2700
2022-12-24T02:08:05.650Z,40.2870
2022-12-24T02:08:16.716Z,40.2990
2022-12-24T02:08:27.761Z,40.2870
2022-12-24T02:08:38.846Z,40.2820
2022-12-24T02:08:49.931Z,40.2820
2022-12-24T02:09:01.030Z,40.2700
2022-12-24T02:09:12.082Z,40.2820
2022-12-24T02:09:23.144Z,40.2820
2022-12-24T02:09:34.225Z,40.2700
2022-12-24T02:09:45.291Z,40.2760
2022-12-24T02:09:56.369Z,40.2760
2022-12-24T02:10:07.447Z,40.2820
2022-12-24T02:10:18.507Z,40.2820
2022-12-24T02:10:29.577Z,40.2590
2022-12-24T02:10:40.651Z,40.2590
2022-12-24T02:10:51.725Z,40.2530
2022-12-24T02:11:02.795Z,40.2590
2022-12-24T02:11:13.850Z,40.2530
2022-12-24T02:11:24.923Z,40.2530
2022-12-24T02:11:36.005Z,40.2530
2022-12-24T02:11:47.061Z,40.2700
2022-12-24T02:11:58.127Z,40.2740
2022-12-24T02:12:09.200Z,40.2740
2022-12-24T02:12:20.285Z,40.2740
2022-12-24T02:12:31.328Z,40.2740
2022-12-24T02:12:42.403Z,40.2910
2022-12-24T02:12:53.454Z,40.2970
2022-12-24T02:13:04.519Z,40.2910
2022-12-24T02:13:15.595Z,40.2850
2022-12-24T02:13:26.667Z,40.2910
2022-12-24T02:13:37.736Z,40.2850
2022-12-24T02:13:48.809Z,40.2970
2022-12-24T02:13:59.978Z,40.3030
2022-12-24T02:14:11.047Z,40.3090
2022-12-24T02:14:22.106Z,40.3030
2022-12-24T02:14:33.180Z,40.3030
2022-12-24T02:14:44.247Z,40.2910